sensor_id;sensor_type;location;lat;lon;timestamp;temperature;humidity
17827;DHT22;9038;48.208;16.308;2022-10-15T00:01:52;13.30;76.10
17827;DHT22;9038;48.208;16.308;2022-10-15T00:03:54;13.30;76.00
17827;DHT22;9038;48.208;16.308;2022-10-15T00:05:56;13.30;76.00
17827;DHT22;9038;48.208;16.308;2022-10-15T00:07:58;13.40;76.10
17827;DHT22;9038;48.208;16.308;2022-10-15T00:10:00;13.40;75.90
17827;DHT22;9038;48.208;16.308;2022-10-15T00:12:02;13.40;75.40
17827;DHT22;9038;48.208;16.308;2022-10-15T00:14:04;13.50;75.00
17827;DHT22;9038;48.208;16.308;2022-10-15T00:16:08;13.50;74.70
17827;DHT22;9038;48.208;16.308;2022-10-15T00:18:11;13.50;74.50
17827;DHT22;9038;48.208;16.308;2022-10-15T00:20:13;13.50;74.50
17827;DHT22;9038;48.208;16.308;2022-10-15T00:22:15;13.50;75.00
17827;DHT22;9038;48.208;16.308;2022-10-15T00:24:17;13.50;75.50
17827;DHT22;9038;48.208;16.308;2022-10-15T00:26:20;13.50;75.60
17827;DHT22;9038;48.208;16.308;2022-10-15T00:28:22;13.50;75.70
17827;DHT22;9038;48.208;16.308;2022-10-15T00:30:24;13.50;75.70
17827;DHT22;9038;48.208;16.308;2022-10-15T00:32:26;13.50;75.60
17827;DHT22;9038;48.208;16.308;2022-10-15T00:34:29;13.50;75.60
17827;DHT22;9038;48.208;16.308;2022-10-15T00:36:33;13.50;75.60
17827;DHT22;9038;48.208;16.308;2022-10-15T00:38:35;13.50;75.70
17827;DHT22;9038;48.208;16.308;2022-10-15T00:40:40;13.50;75.60
17827;DHT22;9038;48.208;16.308;2022-10-15T00:42:41;13.60;75.60
17827;DHT22;9038;48.208;16.308;2022-10-15T00:44:50;13.60;75.60
17827;DHT22;9038;48.208;16.308;2022-10-15T00:46:54;13.60;75.50
17827;DHT22;9038;48.208;16.308;2022-10-15T00:48:59;13.60;75.30
17827;DHT22;9038;48.208;16.308;2022-10-15T00:51:03;13.50;75.10
17827;DHT22;9038;48.208;16.308;2022-10-15T00:53:07;13.50;74.80
17827;DHT22;9038;48.208;16.308;2022-10-15T00:55:14;13.60;75.10
17827;DHT22;9038;48.208;16.308;2022-10-15T00:57:17;13.60;75.10
17827;DHT22;9038;48.208;16.308;2022-10-15T00:59:23;13.60;75.20
17827;DHT22;9038;48.208;16.308;2022-10-15T01:01:26;13.60;75.30
17827;DHT22;9038;48.208;16.308;2022-10-15T01:03:28;13.60;75.10
17827;DHT22;9038;48.208;16.308;2022-10-15T01:05:30;13.50;74.80
17827;DHT22;9038;48.208;16.308;2022-10-15T01:07:34;13.50;74.80
17827;DHT22;9038;48.208;16.308;2022-10-15T01:09:36;13.50;74.80
17827;DHT22;9038;48.208;16.308;2022-10-15T01:11:43;13.40;74.90
17827;DHT22;9038;48.208;16.308;2022-10-15T01:13:52;13.40;75.10
17827;DHT22;9038;48.208;16.308;2022-10-15T01:16:01;13.40;75.30
17827;DHT22;9038;48.208;16.308;2022-10-15T01:18:10;13.40;75.40
17827;DHT22;9038;48.208;16.308;2022-10-15T01:20:47;13.40;75.30
17827;DHT22;9038;48.208;16.308;2022-10-15T01:23:01;13.40;75.40
17827;DHT22;9038;48.208;16.308;2022-10-15T01:25:17;13.40;75.30
17827;DHT22;9038;48.208;16.308;2022-10-15T01:27:35;13.40;75.60
17827;DHT22;9038;48.208;16.308;2022-10-15T01:29:57;13.50;75.60
17827;DHT22;9038;48.208;16.308;2022-10-15T01:32:08;13.50;75.40
17827;DHT22;9038;48.208;16.308;2022-10-15T01:34:18;13.60;75.40
17827;DHT22;9038;48.208;16.308;2022-10-15T01:36:26;13.70;75.50
17827;DHT22;9038;48.208;16.308;2022-10-15T01:38:42;13.80;75.40
17827;DHT22;9038;48.208;16.308;2022-10-15T01:40:48;13.80;74.70
17827;DHT22;9038;48.208;16.308;2022-10-15T01:42:53;13.80;74.30
17827;DHT22;9038;48.208;16.308;2022-10-15T01:44:59;13.90;74.30
17827;DHT22;9038;48.208;16.308;2022-10-15T01:47:05;13.90;75.10
17827;DHT22;9038;48.208;16.308;2022-10-15T01:49:11;13.90;74.10
17827;DHT22;9038;48.208;16.308;2022-10-15T01:51:15;13.90;74.00
17827;DHT22;9038;48.208;16.308;2022-10-15T01:53:21;14.00;74.20
17827;DHT22;9038;48.208;16.308;2022-10-15T01:55:26;14.00;74.20
17827;DHT22;9038;48.208;16.308;2022-10-15T01:57:30;14.00;74.20
17827;DHT22;9038;48.208;16.308;2022-10-15T01:59:34;14.00;74.20
17827;DHT22;9038;48.208;16.308;2022-10-15T02:01:36;14.00;74.00
17827;DHT22;9038;48.208;16.308;2022-10-15T02:03:47;14.00;73.90
17827;DHT22;9038;48.208;16.308;2022-10-15T02:05:54;14.00;74.00
17827;DHT22;9038;48.208;16.308;2022-10-15T02:08:03;14.00;73.90
17827;DHT22;9038;48.208;16.308;2022-10-15T02:10:11;14.10;74.00
17827;DHT22;9038;48.208;16.308;2022-10-15T02:12:27;14.10;74.00
17827;DHT22;9038;48.208;16.308;2022-10-15T02:14:35;14.10;74.00
17827;DHT22;9038;48.208;16.308;2022-10-15T02:16:42;14.20;74.10
17827;DHT22;9038;48.208;16.308;2022-10-15T02:18:48;14.10;73.70
17827;DHT22;9038;48.208;16.308;2022-10-15T02:20:56;14.20;73.80
17827;DHT22;9038;48.208;16.308;2022-10-15T02:23:01;14.20;73.80
17827;DHT22;9038;48.208;16.308;2022-10-15T02:25:08;14.10;73.50
17827;DHT22;9038;48.208;16.308;2022-10-15T02:27:12;14.20;73.70
17827;DHT22;9038;48.208;16.308;2022-10-15T02:29:20;14.20;73.80
17827;DHT22;9038;48.208;16.308;2022-10-15T02:31:24;14.30;73.80
17827;DHT22;9038;48.208;16.308;2022-10-15T02:33:29;14.20;73.70
17827;DHT22;9038;48.208;16.308;2022-10-15T02:35:33;14.20;73.60
17827;DHT22;9038;48.208;16.308;2022-10-15T02:37:37;14.20;73.50
17827;DHT22;9038;48.208;16.308;2022-10-15T02:39:43;14.30;73.50
17827;DHT22;9038;48.208;16.308;2022-10-15T02:41:46;14.20;73.50
17827;DHT22;9038;48.208;16.308;2022-10-15T02:43:49;14.20;73.50
17827;DHT22;9038;48.208;16.308;2022-10-15T02:45:51;14.20;73.60
17827;DHT22;9038;48.208;16.308;2022-10-15T02:47:57;14.20;74.00
17827;DHT22;9038;48.208;16.308;2022-10-15T02:49:59;14.20;73.40
17827;DHT22;9038;48.208;16.308;2022-10-15T02:52:05;14.30;73.40
17827;DHT22;9038;48.208;16.308;2022-10-15T02:54:07;14.30;73.40
17827;DHT22;9038;48.208;16.308;2022-10-15T02:56:09;14.30;73.50
17827;DHT22;9038;48.208;16.308;2022-10-15T02:58:11;14.30;73.60
17827;DHT22;9038;48.208;16.308;2022-10-15T03:00:13;14.30;73.50
17827;DHT22;9038;48.208;16.308;2022-10-15T03:02:15;14.30;73.30
17827;DHT22;9038;48.208;16.308;2022-10-15T03:04:17;14.40;73.30
17827;DHT22;9038;48.208;16.308;2022-10-15T03:06:19;14.40;73.30
17827;DHT22;9038;48.208;16.308;2022-10-15T03:08:22;14.40;73.30
17827;DHT22;9038;48.208;16.308;2022-10-15T03:10:24;14.40;73.30
17827;DHT22;9038;48.208;16.308;2022-10-15T03:12:26;14.40;73.30
17827;DHT22;9038;48.208;16.308;2022-10-15T03:14:28;14.40;73.30
17827;DHT22;9038;48.208;16.308;2022-10-15T03:16:30;14.40;72.90
17827;DHT22;9038;48.208;16.308;2022-10-15T03:18:32;14.40;73.00
17827;DHT22;9038;48.208;16.308;2022-10-15T03:20:34;14.40;73.10
17827;DHT22;9038;48.208;16.308;2022-10-15T03:22:37;14.40;73.10
17827;DHT22;9038;48.208;16.308;2022-10-15T03:24:40;14.40;72.90
17827;DHT22;9038;48.208;16.308;2022-10-15T03:26:42;14.40;72.60
17827;DHT22;9038;48.208;16.308;2022-10-15T03:28:44;14.40;72.90
17827;DHT22;9038;48.208;16.308;2022-10-15T03:30:46;14.40;73.10
17827;DHT22;9038;48.208;16.308;2022-10-15T03:32:48;14.40;73.10
17827;DHT22;9038;48.208;16.308;2022-10-15T03:34:49;14.40;73.30
17827;DHT22;9038;48.208;16.308;2022-10-15T03:36:51;14.40;73.30
17827;DHT22;9038;48.208;16.308;2022-10-15T03:38:53;14.40;73.20
17827;DHT22;9038;48.208;16.308;2022-10-15T03:40:56;14.40;73.30
17827;DHT22;9038;48.208;16.308;2022-10-15T03:42:58;14.40;73.30
17827;DHT22;9038;48.208;16.308;2022-10-15T03:45:00;14.40;73.40
17827;DHT22;9038;48.208;16.308;2022-10-15T03:47:02;14.40;73.30
17827;DHT22;9038;48.208;16.308;2022-10-15T03:49:04;14.30;73.30
17827;DHT22;9038;48.208;16.308;2022-10-15T03:51:06;14.30;73.40
17827;DHT22;9038;48.208;16.308;2022-10-15T03:53:08;14.30;73.20
17827;DHT22;9038;48.208;16.308;2022-10-15T03:55:10;14.30;73.40
17827;DHT22;9038;48.208;16.308;2022-10-15T03:57:14;14.30;73.30
17827;DHT22;9038;48.208;16.308;2022-10-15T03:59:15;14.30;73.40
17827;DHT22;9038;48.208;16.308;2022-10-15T04:01:18;14.30;73.50
17827;DHT22;9038;48.208;16.308;2022-10-15T04:03:20;14.30;73.60
17827;DHT22;9038;48.208;16.308;2022-10-15T04:05:22;14.30;73.50
17827;DHT22;9038;48.208;16.308;2022-10-15T04:07:24;14.40;73.80
17827;DHT22;9038;48.208;16.308;2022-10-15T04:09:26;14.30;73.40
17827;DHT22;9038;48.208;16.308;2022-10-15T04:11:28;14.30;73.40
17827;DHT22;9038;48.208;16.308;2022-10-15T04:13:31;14.30;73.40
17827;DHT22;9038;48.208;16.308;2022-10-15T04:15:33;14.30;73.40
17827;DHT22;9038;48.208;16.308;2022-10-15T04:17:35;14.30;73.50
17827;DHT22;9038;48.208;16.308;2022-10-15T04:19:37;14.30;73.60
17827;DHT22;9038;48.208;16.308;2022-10-15T04:21:39;14.30;73.70
17827;DHT22;9038;48.208;16.308;2022-10-15T04:23:41;14.30;73.70
17827;DHT22;9038;48.208;16.308;2022-10-15T04:25:43;14.30;73.50
17827;DHT22;9038;48.208;16.308;2022-10-15T04:27:45;14.40;73.60
17827;DHT22;9038;48.208;16.308;2022-10-15T04:29:49;14.40;73.40
17827;DHT22;9038;48.208;16.308;2022-10-15T04:31:50;14.40;73.30
17827;DHT22;9038;48.208;16.308;2022-10-15T04:33:52;14.40;73.30
17827;DHT22;9038;48.208;16.308;2022-10-15T04:35:59;14.40;73.30
17827;DHT22;9038;48.208;16.308;2022-10-15T04:38:01;14.40;73.70
17827;DHT22;9038;48.208;16.308;2022-10-15T04:40:04;14.30;73.60
17827;DHT22;9038;48.208;16.308;2022-10-15T04:42:06;14.40;73.80
17827;DHT22;9038;48.208;16.308;2022-10-15T04:44:08;14.30;73.80
17827;DHT22;9038;48.208;16.308;2022-10-15T04:46:12;14.30;73.80
17827;DHT22;9038;48.208;16.308;2022-10-15T04:48:14;14.30;73.80
17827;DHT22;9038;48.208;16.308;2022-10-15T04:50:16;14.30;73.70
17827;DHT22;9038;48.208;16.308;2022-10-15T04:52:18;14.40;73.90
17827;DHT22;9038;48.208;16.308;2022-10-15T04:54:20;14.50;73.70
17827;DHT22;9038;48.208;16.308;2022-10-15T04:56:22;14.50;73.60
17827;DHT22;9038;48.208;16.308;2022-10-15T04:58:24;14.50;73.50
17827;DHT22;9038;48.208;16.308;2022-10-15T05:00:26;14.50;73.40
17827;DHT22;9038;48.208;16.308;2022-10-15T05:02:29;14.50;73.60
17827;DHT22;9038;48.208;16.308;2022-10-15T05:04:32;14.60;73.80
17827;DHT22;9038;48.208;16.308;2022-10-15T05:06:34;14.60;73.70
17827;DHT22;9038;48.208;16.308;2022-10-15T05:08:36;14.60;73.90
17827;DHT22;9038;48.208;16.308;2022-10-15T05:10:41;14.60;73.90
17827;DHT22;9038;48.208;16.308;2022-10-15T05:12:43;14.60;74.10
17827;DHT22;9038;48.208;16.308;2022-10-15T05:14:45;14.60;74.30
17827;DHT22;9038;48.208;16.308;2022-10-15T05:16:46;14.60;74.20
17827;DHT22;9038;48.208;16.308;2022-10-15T05:18:51;14.60;74.20
17827;DHT22;9038;48.208;16.308;2022-10-15T05:20:53;14.60;74.40
17827;DHT22;9038;48.208;16.308;2022-10-15T05:22:55;14.60;74.50
17827;DHT22;9038;48.208;16.308;2022-10-15T05:24:57;14.60;74.20
17827;DHT22;9038;48.208;16.308;2022-10-15T05:26:59;14.70;74.60
17827;DHT22;9038;48.208;16.308;2022-10-15T05:29:01;14.70;74.80
17827;DHT22;9038;48.208;16.308;2022-10-15T05:31:04;14.70;74.60
17827;DHT22;9038;48.208;16.308;2022-10-15T05:33:06;14.70;74.60
17827;DHT22;9038;48.208;16.308;2022-10-15T05:35:10;14.70;75.00
17827;DHT22;9038;48.208;16.308;2022-10-15T05:37:11;14.60;74.50
17827;DHT22;9038;48.208;16.308;2022-10-15T05:39:13;14.60;74.50
17827;DHT22;9038;48.208;16.308;2022-10-15T05:41:16;14.60;74.70
17827;DHT22;9038;48.208;16.308;2022-10-15T05:43:18;14.60;74.70
17827;DHT22;9038;48.208;16.308;2022-10-15T05:45:19;14.60;74.90
17827;DHT22;9038;48.208;16.308;2022-10-15T05:47:21;14.60;75.10
17827;DHT22;9038;48.208;16.308;2022-10-15T05:49:23;14.70;75.20
17827;DHT22;9038;48.208;16.308;2022-10-15T05:51:27;14.70;75.20
17827;DHT22;9038;48.208;16.308;2022-10-15T05:53:29;14.80;75.30
17827;DHT22;9038;48.208;16.308;2022-10-15T05:55:31;14.80;74.80
17827;DHT22;9038;48.208;16.308;2022-10-15T05:57:33;14.70;75.50
17827;DHT22;9038;48.208;16.308;2022-10-15T05:59:35;14.80;75.10
17827;DHT22;9038;48.208;16.308;2022-10-15T06:01:37;14.70;75.00
17827;DHT22;9038;48.208;16.308;2022-10-15T06:03:39;14.80;75.00
17827;DHT22;9038;48.208;16.308;2022-10-15T06:05:42;14.80;74.90
17827;DHT22;9038;48.208;16.308;2022-10-15T06:07:45;14.80;74.70
17827;DHT22;9038;48.208;16.308;2022-10-15T06:09:47;14.90;74.80
17827;DHT22;9038;48.208;16.308;2022-10-15T06:11:49;14.90;74.80
17827;DHT22;9038;48.208;16.308;2022-10-15T06:13:51;14.90;75.20
17827;DHT22;9038;48.208;16.308;2022-10-15T06:15:52;14.90;74.80
17827;DHT22;9038;48.208;16.308;2022-10-15T06:17:55;14.90;74.60
17827;DHT22;9038;48.208;16.308;2022-10-15T06:19:57;15.00;74.60
17827;DHT22;9038;48.208;16.308;2022-10-15T06:21:58;15.00;74.90
17827;DHT22;9038;48.208;16.308;2022-10-15T06:24:02;15.10;74.80
17827;DHT22;9038;48.208;16.308;2022-10-15T06:26:05;15.10;75.00
17827;DHT22;9038;48.208;16.308;2022-10-15T06:28:08;15.10;75.10
17827;DHT22;9038;48.208;16.308;2022-10-15T06:30:10;15.20;74.70
17827;DHT22;9038;48.208;16.308;2022-10-15T06:32:12;15.10;74.40
17827;DHT22;9038;48.208;16.308;2022-10-15T06:34:14;15.20;75.10
17827;DHT22;9038;48.208;16.308;2022-10-15T06:36:16;15.30;74.30
17827;DHT22;9038;48.208;16.308;2022-10-15T06:38:18;15.30;74.20
17827;DHT22;9038;48.208;16.308;2022-10-15T06:40:21;15.40;73.90
17827;DHT22;9038;48.208;16.308;2022-10-15T06:42:23;15.50;74.10
17827;DHT22;9038;48.208;16.308;2022-10-15T06:44:25;15.50;73.60
17827;DHT22;9038;48.208;16.308;2022-10-15T06:46:27;15.50;73.50
17827;DHT22;9038;48.208;16.308;2022-10-15T06:48:28;15.50;73.20
17827;DHT22;9038;48.208;16.308;2022-10-15T06:50:31;15.50;73.30
17827;DHT22;9038;48.208;16.308;2022-10-15T06:52:33;15.50;73.30
17827;DHT22;9038;48.208;16.308;2022-10-15T06:54:35;15.40;73.50
17827;DHT22;9038;48.208;16.308;2022-10-15T06:56:38;15.30;73.30
17827;DHT22;9038;48.208;16.308;2022-10-15T06:58:40;15.20;73.90
17827;DHT22;9038;48.208;16.308;2022-10-15T07:00:43;15.20;74.20
17827;DHT22;9038;48.208;16.308;2022-10-15T07:02:44;15.20;74.30
17827;DHT22;9038;48.208;16.308;2022-10-15T07:04:46;15.30;74.00
17827;DHT22;9038;48.208;16.308;2022-10-15T07:06:49;15.20;74.10
17827;DHT22;9038;48.208;16.308;2022-10-15T07:08:51;15.20;74.20
17827;DHT22;9038;48.208;16.308;2022-10-15T07:10:52;15.30;74.50
17827;DHT22;9038;48.208;16.308;2022-10-15T07:12:58;15.30;74.00
17827;DHT22;9038;48.208;16.308;2022-10-15T07:15:00;15.40;74.00
17827;DHT22;9038;48.208;16.308;2022-10-15T07:17:02;15.50;74.50
17827;DHT22;9038;48.208;16.308;2022-10-15T07:19:04;15.60;73.90
17827;DHT22;9038;48.208;16.308;2022-10-15T07:21:07;15.50;73.20
17827;DHT22;9038;48.208;16.308;2022-10-15T07:23:09;15.50;73.80
17827;DHT22;9038;48.208;16.308;2022-10-15T07:25:11;15.50;73.90
17827;DHT22;9038;48.208;16.308;2022-10-15T07:27:13;15.60;73.80
17827;DHT22;9038;48.208;16.308;2022-10-15T07:29:17;15.70;73.80
17827;DHT22;9038;48.208;16.308;2022-10-15T07:31:19;15.80;73.10
17827;DHT22;9038;48.208;16.308;2022-10-15T07:33:21;15.80;72.80
17827;DHT22;9038;48.208;16.308;2022-10-15T07:35:23;15.90;72.90
17827;DHT22;9038;48.208;16.308;2022-10-15T07:37:25;16.10;73.10
17827;DHT22;9038;48.208;16.308;2022-10-15T07:39:27;16.10;72.60
17827;DHT22;9038;48.208;16.308;2022-10-15T07:41:29;16.20;71.90
17827;DHT22;9038;48.208;16.308;2022-10-15T07:43:32;16.30;72.20
17827;DHT22;9038;48.208;16.308;2022-10-15T07:45:35;16.40;72.20
17827;DHT22;9038;48.208;16.308;2022-10-15T07:47:39;16.40;71.50
17827;DHT22;9038;48.208;16.308;2022-10-15T07:49:41;16.40;71.30
17827;DHT22;9038;48.208;16.308;2022-10-15T07:51:43;16.50;71.40
17827;DHT22;9038;48.208;16.308;2022-10-15T07:53:45;16.50;71.30
17827;DHT22;9038;48.208;16.308;2022-10-15T07:55:48;16.60;71.50
17827;DHT22;9038;48.208;16.308;2022-10-15T07:57:50;16.60;70.80
17827;DHT22;9038;48.208;16.308;2022-10-15T07:59:52;16.50;71.00
17827;DHT22;9038;48.208;16.308;2022-10-15T08:01:55;16.50;71.40
17827;DHT22;9038;48.208;16.308;2022-10-15T08:03:57;16.40;71.30
17827;DHT22;9038;48.208;16.308;2022-10-15T08:05:59;16.40;71.50
17827;DHT22;9038;48.208;16.308;2022-10-15T08:08:02;16.40;71.40
17827;DHT22;9038;48.208;16.308;2022-10-15T08:10:05;16.30;71.80
17827;DHT22;9038;48.208;16.308;2022-10-15T08:12:07;16.30;72.40
17827;DHT22;9038;48.208;16.308;2022-10-15T08:14:09;16.30;72.40
17827;DHT22;9038;48.208;16.308;2022-10-15T08:16:12;16.50;72.80
17827;DHT22;9038;48.208;16.308;2022-10-15T08:18:16;16.60;71.80
17827;DHT22;9038;48.208;16.308;2022-10-15T08:20:18;16.70;71.40
17827;DHT22;9038;48.208;16.308;2022-10-15T08:22:20;16.80;71.60
17827;DHT22;9038;48.208;16.308;2022-10-15T08:24:22;16.80;71.20
17827;DHT22;9038;48.208;16.308;2022-10-15T08:26:23;16.90;71.20
17827;DHT22;9038;48.208;16.308;2022-10-15T08:28:26;17.00;71.70
17827;DHT22;9038;48.208;16.308;2022-10-15T08:30:28;17.20;70.70
17827;DHT22;9038;48.208;16.308;2022-10-15T08:32:30;17.20;70.60
17827;DHT22;9038;48.208;16.308;2022-10-15T08:34:34;17.30;69.80
17827;DHT22;9038;48.208;16.308;2022-10-15T08:36:36;17.40;70.00
17827;DHT22;9038;48.208;16.308;2022-10-15T08:38:38;17.50;69.80
17827;DHT22;9038;48.208;16.308;2022-10-15T08:40:40;17.70;70.20
17827;DHT22;9038;48.208;16.308;2022-10-15T08:42:47;17.80;69.30
17827;DHT22;9038;48.208;16.308;2022-10-15T08:44:53;17.80;68.70
17827;DHT22;9038;48.208;16.308;2022-10-15T08:47:02;17.90;68.50
17827;DHT22;9038;48.208;16.308;2022-10-15T08:49:08;18.00;68.10
17827;DHT22;9038;48.208;16.308;2022-10-15T08:51:18;18.00;68.20
17827;DHT22;9038;48.208;16.308;2022-10-15T08:53:22;18.00;67.80
17827;DHT22;9038;48.208;16.308;2022-10-15T08:55:28;18.10;68.00
17827;DHT22;9038;48.208;16.308;2022-10-15T08:57:39;18.20;67.30
17827;DHT22;9038;48.208;16.308;2022-10-15T08:59:47;18.20;67.60
17827;DHT22;9038;48.208;16.308;2022-10-15T09:01:53;18.20;67.50
17827;DHT22;9038;48.208;16.308;2022-10-15T09:04:05;18.20;66.90
17827;DHT22;9038;48.208;16.308;2022-10-15T09:06:13;18.10;67.10
17827;DHT22;9038;48.208;16.308;2022-10-15T09:08:22;17.90;68.00
17827;DHT22;9038;48.208;16.308;2022-10-15T09:10:31;17.90;67.60
17827;DHT22;9038;48.208;16.308;2022-10-15T09:12:41;17.80;67.90
17827;DHT22;9038;48.208;16.308;2022-10-15T09:14:48;17.90;68.50
17827;DHT22;9038;48.208;16.308;2022-10-15T09:16:50;18.10;68.00
17827;DHT22;9038;48.208;16.308;2022-10-15T09:18:52;18.10;68.10
17827;DHT22;9038;48.208;16.308;2022-10-15T09:20:56;18.20;67.70
17827;DHT22;9038;48.208;16.308;2022-10-15T09:22:58;18.10;67.40
17827;DHT22;9038;48.208;16.308;2022-10-15T09:25:13;18.00;68.00
17827;DHT22;9038;48.208;16.308;2022-10-15T09:27:21;17.90;68.60
17827;DHT22;9038;48.208;16.308;2022-10-15T09:29:29;17.90;68.90
17827;DHT22;9038;48.208;16.308;2022-10-15T09:31:41;17.90;68.80
17827;DHT22;9038;48.208;16.308;2022-10-15T09:33:48;17.80;68.70
17827;DHT22;9038;48.208;16.308;2022-10-15T09:35:54;17.80;69.10
17827;DHT22;9038;48.208;16.308;2022-10-15T09:38:05;17.80;69.50
17827;DHT22;9038;48.208;16.308;2022-10-15T09:40:31;17.80;68.90
17827;DHT22;9038;48.208;16.308;2022-10-15T09:42:38;17.80;69.40
17827;DHT22;9038;48.208;16.308;2022-10-15T09:44:43;17.80;69.40
17827;DHT22;9038;48.208;16.308;2022-10-15T09:46:48;17.80;69.60
17827;DHT22;9038;48.208;16.308;2022-10-15T09:48:52;17.70;69.50
17827;DHT22;9038;48.208;16.308;2022-10-15T09:51:03;17.80;70.10
17827;DHT22;9038;48.208;16.308;2022-10-15T09:53:15;17.90;70.10
17827;DHT22;9038;48.208;16.308;2022-10-15T09:55:35;18.00;70.30
17827;DHT22;9038;48.208;16.308;2022-10-15T09:57:38;18.00;70.30
17827;DHT22;9038;48.208;16.308;2022-10-15T09:59:51;18.00;68.90
17827;DHT22;9038;48.208;16.308;2022-10-15T10:01:59;17.90;69.80
17827;DHT22;9038;48.208;16.308;2022-10-15T10:04:12;17.80;69.60
17827;DHT22;9038;48.208;16.308;2022-10-15T10:06:14;17.70;70.00
17827;DHT22;9038;48.208;16.308;2022-10-15T10:08:19;17.60;70.40
17827;DHT22;9038;48.208;16.308;2022-10-15T10:10:26;17.50;70.90
17827;DHT22;9038;48.208;16.308;2022-10-15T10:12:31;17.40;71.40
17827;DHT22;9038;48.208;16.308;2022-10-15T10:14:36;17.50;71.50
17827;DHT22;9038;48.208;16.308;2022-10-15T10:17:07;17.50;71.40
17827;DHT22;9038;48.208;16.308;2022-10-15T10:19:12;17.60;71.60
17827;DHT22;9038;48.208;16.308;2022-10-15T10:21:21;17.70;70.80
17827;DHT22;9038;48.208;16.308;2022-10-15T10:23:27;17.80;70.70
17827;DHT22;9038;48.208;16.308;2022-10-15T10:25:36;17.80;69.80
17827;DHT22;9038;48.208;16.308;2022-10-15T10:27:44;17.90;70.10
17827;DHT22;9038;48.208;16.308;2022-10-15T10:29:53;18.00;69.50
17827;DHT22;9038;48.208;16.308;2022-10-15T10:31:56;18.10;69.00
17827;DHT22;9038;48.208;16.308;2022-10-15T10:34:00;18.00;68.90
17827;DHT22;9038;48.208;16.308;2022-10-15T10:36:04;18.00;69.00
17827;DHT22;9038;48.208;16.308;2022-10-15T10:38:18;18.10;69.00
17827;DHT22;9038;48.208;16.308;2022-10-15T10:40:25;17.90;69.00
17827;DHT22;9038;48.208;16.308;2022-10-15T10:42:33;17.90;69.50
17827;DHT22;9038;48.208;16.308;2022-10-15T10:44:39;17.90;69.80
17827;DHT22;9038;48.208;16.308;2022-10-15T10:46:41;18.00;70.00
17827;DHT22;9038;48.208;16.308;2022-10-15T10:48:45;18.00;69.60
17827;DHT22;9038;48.208;16.308;2022-10-15T10:50:47;18.10;69.50
17827;DHT22;9038;48.208;16.308;2022-10-15T10:52:49;18.10;69.90
17827;DHT22;9038;48.208;16.308;2022-10-15T10:54:57;18.10;69.40
17827;DHT22;9038;48.208;16.308;2022-10-15T10:57:00;18.20;69.30
17827;DHT22;9038;48.208;16.308;2022-10-15T10:59:15;18.30;69.50
17827;DHT22;9038;48.208;16.308;2022-10-15T11:01:18;18.40;69.30
17827;DHT22;9038;48.208;16.308;2022-10-15T11:03:26;18.40;69.30
17827;DHT22;9038;48.208;16.308;2022-10-15T11:05:33;18.50;69.40
17827;DHT22;9038;48.208;16.308;2022-10-15T11:07:44;18.50;69.40
17827;DHT22;9038;48.208;16.308;2022-10-15T11:09:52;18.50;68.80
17827;DHT22;9038;48.208;16.308;2022-10-15T11:12:05;18.50;69.40
17827;DHT22;9038;48.208;16.308;2022-10-15T11:14:18;18.50;69.40
17827;DHT22;9038;48.208;16.308;2022-10-15T11:16:33;18.30;69.20
17827;DHT22;9038;48.208;16.308;2022-10-15T11:18:54;18.20;70.00
17827;DHT22;9038;48.208;16.308;2022-10-15T11:21:03;18.00;70.00
17827;DHT22;9038;48.208;16.308;2022-10-15T11:23:17;17.60;71.20
17827;DHT22;9038;48.208;16.308;2022-10-15T11:25:31;17.40;71.60
17827;DHT22;9038;48.208;16.308;2022-10-15T11:27:50;17.20;73.00
17827;DHT22;9038;48.208;16.308;2022-10-15T11:30:02;17.00;74.00
17827;DHT22;9038;48.208;16.308;2022-10-15T11:32:14;17.00;74.70
17827;DHT22;9038;48.208;16.308;2022-10-15T11:34:29;16.90;75.40
17827;DHT22;9038;48.208;16.308;2022-10-15T11:36:44;16.80;76.60
17827;DHT22;9038;48.208;16.308;2022-10-15T11:38:55;16.80;77.30
17827;DHT22;9038;48.208;16.308;2022-10-15T11:41:16;16.80;76.70
17827;DHT22;9038;48.208;16.308;2022-10-15T11:43:36;16.70;76.90
17827;DHT22;9038;48.208;16.308;2022-10-15T11:45:53;16.80;76.80
17827;DHT22;9038;48.208;16.308;2022-10-15T11:48:00;16.80;77.10
17827;DHT22;9038;48.208;16.308;2022-10-15T11:50:15;16.80;77.00
17827;DHT22;9038;48.208;16.308;2022-10-15T11:52:34;16.80;77.60
17827;DHT22;9038;48.208;16.308;2022-10-15T11:54:42;16.80;77.20
17827;DHT22;9038;48.208;16.308;2022-10-15T11:56:47;16.60;77.50
17827;DHT22;9038;48.208;16.308;2022-10-15T11:58:51;16.50;77.90
17827;DHT22;9038;48.208;16.308;2022-10-15T12:00:59;16.50;78.70
17827;DHT22;9038;48.208;16.308;2022-10-15T12:03:05;16.40;79.40
17827;DHT22;9038;48.208;16.308;2022-10-15T12:05:11;16.40;79.40
17827;DHT22;9038;48.208;16.308;2022-10-15T12:07:19;16.30;79.90
17827;DHT22;9038;48.208;16.308;2022-10-15T12:09:25;16.30;80.90
17827;DHT22;9038;48.208;16.308;2022-10-15T12:11:39;16.40;82.40
17827;DHT22;9038;48.208;16.308;2022-10-15T12:13:50;16.20;87.30
17827;DHT22;9038;48.208;16.308;2022-10-15T12:16:05;16.10;88.30
17827;DHT22;9038;48.208;16.308;2022-10-15T12:18:16;15.90;89.30
17827;DHT22;9038;48.208;16.308;2022-10-15T12:20:22;15.80;87.80
17827;DHT22;9038;48.208;16.308;2022-10-15T12:22:32;15.70;85.70
17827;DHT22;9038;48.208;16.308;2022-10-15T12:24:50;15.70;84.00
17827;DHT22;9038;48.208;16.308;2022-10-15T12:26:53;15.80;83.40
17827;DHT22;9038;48.208;16.308;2022-10-15T12:28:56;15.90;82.40
17827;DHT22;9038;48.208;16.308;2022-10-15T12:31:01;16.00;82.00
17827;DHT22;9038;48.208;16.308;2022-10-15T12:33:23;16.10;81.80
17827;DHT22;9038;48.208;16.308;2022-10-15T12:35:33;16.20;81.30
17827;DHT22;9038;48.208;16.308;2022-10-15T12:37:36;16.20;81.20
17827;DHT22;9038;48.208;16.308;2022-10-15T12:39:40;16.30;81.30
17827;DHT22;9038;48.208;16.308;2022-10-15T12:41:44;16.40;81.20
17827;DHT22;9038;48.208;16.308;2022-10-15T12:43:50;16.40;80.40
17827;DHT22;9038;48.208;16.308;2022-10-15T12:45:56;16.50;80.40
17827;DHT22;9038;48.208;16.308;2022-10-15T12:48:26;16.60;79.60
17827;DHT22;9038;48.208;16.308;2022-10-15T12:50:33;16.60;79.20
17827;DHT22;9038;48.208;16.308;2022-10-15T12:52:59;16.50;79.50
17827;DHT22;9038;48.208;16.308;2022-10-15T12:55:21;16.50;79.60
17827;DHT22;9038;48.208;16.308;2022-10-15T12:57:52;16.50;79.60
17827;DHT22;9038;48.208;16.308;2022-10-15T12:59:55;16.50;79.70
17827;DHT22;9038;48.208;16.308;2022-10-15T13:01:57;16.50;79.60
17827;DHT22;9038;48.208;16.308;2022-10-15T13:04:01;16.50;79.60
17827;DHT22;9038;48.208;16.308;2022-10-15T13:06:14;16.50;79.90
17827;DHT22;9038;48.208;16.308;2022-10-15T13:08:21;16.50;80.20
17827;DHT22;9038;48.208;16.308;2022-10-15T13:10:26;16.50;80.00
17827;DHT22;9038;48.208;16.308;2022-10-15T13:12:29;16.50;80.30